Flight Track Log - Related Links

Times and Time Zones

All times are in EDT time to prevent confusion due to time zone crossing. See the AWI53A flight status page for this flight to view local times or setup timezone preferences in your user account.

Time Position Orientation Groundspeed Altitude Reporting Facility
EDT Latitude Longitude Course Direction KTS MPH feet Rate Location/Type
Wed 09:06:57 AM 38.9000 -77.0833 180° South 192 221 2,400  Level Potomac TRACON
Wed 09:07:51 AM 38.9333 -77.1333 311° West 238 274 4,400 2,667 Climbing Potomac TRACON
Wed 09:08:45 AM 38.9833 -77.1833 322° Northwest 251 289 7,200 2,421 Climbing Potomac TRACON
Wed 09:09:45 AM 39.0500 -77.1833 360° North 287 330 9,000 895 Climbing Potomac TRACON
Wed 09:10:39 AM 39.0833 -77.1000 63° Northeast 316 364 8,900 1,053 Descending Potomac TRACON
Wed 09:11:39 AM 39.0333 -77.0167 128° Southeast 308 354 11,000 2,150 Climbing Potomac TRACON
Wed 09:12:00 AM 38.2931 -76.6833 180° South  Level FlightAware Approximate
Wed 09:12:39 AM 38.9667 -76.9500 142° Southeast 322 371 13,200  Level Potomac TRACON
Wed 09:13:39 AM 38.8833 -76.9000 155° Southeast 338 389 14,900 1,190 Climbing Potomac TRACON
Wed 09:14:45 AM 38.7833 -76.8500 159° South 386 444 15,700 651 Climbing Potomac TRACON
Wed 09:15:02 AM 38.7547 -76.8347 157° South 388 447 15,800 1,169 Climbing Washington Center
Wed 09:16:02 AM 38.6656 -76.7856 157° South 405 466 17,200 1,200 Climbing Washington Center
Wed 09:17:02 AM 38.5661 -76.7308 157° South 410 472 18,200 1,000 Climbing Washington Center
Wed 09:18:02 AM 38.4536 -76.7078 171° South 405 466 19,200 1,050 Climbing Washington Center
Wed 09:19:02 AM 38.3433 -76.6956 175° South 399 459 20,300 1,100 Climbing Washington Center
Wed 09:20:02 AM 38.2286 -76.6833 175° South 405 466 21,400 1,000 Climbing Washington Center
Wed 09:21:02 AM 38.0994 -76.6656 174° South 423 487 22,300 950 Climbing Washington Center
Wed 09:22:02 AM 37.9850 -76.6483 173° South 428 493 23,300 950 Climbing Washington Center
Wed 09:23:02 AM 37.8681 -76.6572 183° South 422 486 24,200 850 Climbing Washington Center
Wed 09:24:02 AM 37.7533 -76.6714 186° South 422 486 25,000 650 Climbing Washington Center
Wed 09:25:02 AM 37.6344 -76.6853 185° South 422 486 25,500 550 Climbing Washington Center
Wed 09:26:02 AM 37.5153 -76.6994 185° South 427 491 26,100 700 Climbing Washington Center
Wed 09:27:02 AM 37.4108 -76.7214 189° South 427 491 26,900 1,050 Climbing Washington Center
Wed 09:28:02 AM 37.3019 -76.7694 199° South 422 486 28,200 1,300 Climbing Washington Center
Wed 09:29:02 AM 37.1950 -76.8119 198° South 417 480 29,500 900 Climbing Washington Center
Wed 09:30:02 AM 37.0925 -76.8572 199° South 406 467 30,000 250 Climbing Washington Center
Wed 09:31:02 AM 36.9919 -76.8972 198° South 395 455 30,000  Level Washington Center
Wed 09:32:02 AM 36.8892 -76.9397 198° South 390 449 30,000  Level Washington Center
Wed 09:33:02 AM 36.7844 -76.9819 198° South 390 449 30,000  Level Washington Center
Wed 09:34:02 AM 36.6836 -77.0372 204° Southwest 395 455 30,000  Level Washington Center
Wed 09:35:02 AM 36.5950 -77.1208 217° Southwest 395 455 30,000  Level Washington Center
Wed 09:36:02 AM 36.5103 -77.2072 219° Southwest 400 460 30,000  Level Washington Center
Wed 09:37:02 AM 36.4236 -77.2878 217° Southwest 395 455 30,000  Level Washington Center
Wed 09:38:02 AM 36.3392 -77.3661 217° Southwest 395 455 30,000  Level Washington Center
Wed 09:39:02 AM 36.2544 -77.4439 217° Southwest 395 455 30,000  Level Washington Center
Wed 09:40:02 AM 36.1611 -77.5344 218° Southwest 388 447 30,000  Level Washington Center
Wed 09:41:02 AM 36.0722 -77.6169 217° Southwest 399 459 30,000  Level Washington Center
Wed 09:42:02 AM 35.9811 -77.7019 217° Southwest 405 466 30,000  Level Washington Center
Wed 09:43:02 AM 35.8878 -77.7764 213° Southwest 405 466 30,000  Level Washington Center
Wed 09:44:02 AM 35.7947 -77.8481 212° Southwest 403 464 30,000  Level Washington Center
Wed 09:45:02 AM 35.7017 -77.9197 212° Southwest 403 464 30,000  Level Washington Center
Wed 09:46:02 AM 35.6083 -77.9911 212° Southwest 398 458 30,000  Level Washington Center
Wed 09:47:02 AM 35.5150 -78.0647 213° Southwest 398 458 30,000  Level Washington Center
Wed 09:48:02 AM 35.4239 -78.1358 212° Southwest 398 458 30,000  Level Washington Center
Wed 09:49:02 AM 35.3306 -78.2092 213° Southwest 398 458 30,000  Level Washington Center
Wed 09:50:02 AM 35.2369 -78.2800 212° Southwest 398 458 30,000  Level Washington Center
Wed 09:51:02 AM 35.1436 -78.3506 212° Southwest 398 458 30,000  Level Washington Center
Wed 09:52:02 AM 35.0500 -78.4258 213° Southwest 398 458 30,000  Level Washington Center
Wed 09:53:02 AM 34.9567 -78.4961 212° Southwest 398 458 30,000 -300 Level Washington Center
Wed 09:54:02 AM 34.8650 -78.5664 212° Southwest 393 452 29,400 -750 Descending Washington Center
Wed 09:55:02 AM 34.7822 -78.6292 212° Southwest 393 452 28,500 -700 Descending Washington Center
Wed 09:56:02 AM 34.6822 -78.7061 212° Southwest 393 452 28,000 -219 Descending Washington Center
Wed 09:57:19 AM 34.5586 -78.7983 212° Southwest 410 472 28,000  Level Jacksonville Center
Wed 09:58:19 AM 34.4672 -78.8758 215° Southwest 410 472 28,000 -300 Level Jacksonville Center
Wed 09:59:19 AM 34.3714 -78.9506 213° Southwest 415 478 27,400 -1,300 Descending Jacksonville Center
Wed 10:00:19 AM 34.2775 -79.0178 211° Southwest 409 471 25,400 -1,700 Descending Jacksonville Center
Wed 10:01:19 AM 34.1789 -79.0672 203° Southwest 395 455 24,000 -850 Descending Jacksonville Center
Wed 10:02:19 AM 34.0842 -79.1067 199° South 376 433 23,700 -700 Descending Jacksonville Center
Wed 10:03:19 AM 33.9875 -79.1508 201° Southwest 369 425 22,600 -1,041 Descending Jacksonville Center
Wed 10:04:20 AM 33.8906 -79.1925 200° South 369 425 21,600 -1,400 Descending Jacksonville Center
Wed 10:05:19 AM 33.7958 -79.2364 201° Southwest 369 425 19,800 -1,815 Descending Jacksonville Center
Wed 10:06:19 AM 33.7142 -79.2922 210° Southwest 358 412 18,000 -1,800 Descending Jacksonville Center
Wed 10:07:19 AM 33.6467 -79.3425 212° Southwest 335 386 16,200 -1,950 Descending Jacksonville Center
Wed 10:08:19 AM 33.5731 -79.4003 213° Southwest 330 380 14,100 -2,000 Descending Jacksonville Center
Wed 10:09:19 AM 33.4997 -79.4578 213° Southwest 325 374 12,200 -1,537 Descending Jacksonville Center
Wed 10:10:20 AM 33.4258 -79.5106 211° Southwest 319 367 11,000 -600 Descending Jacksonville Center
Wed 10:11:19 AM 33.3542 -79.5631 211° Southwest 312 359 11,000 -151 Level Jacksonville Center
Wed 10:12:19 AM 33.2847 -79.6153 212° Southwest 312 359 10,700 -1,250 Descending Jacksonville Center
Wed 10:13:19 AM 33.2153 -79.6725 215° Southwest 312 359 8,500 -2,033 Descending Jacksonville Center
Wed 10:14:20 AM 33.1456 -79.7294 214° Southwest 307 353 6,600 -1,800 Descending Jacksonville Center
Wed 10:15:19 AM 33.0800 -79.7789 212° Southwest 297 342 4,900 -1,765 Descending Jacksonville Center
Wed 10:16:19 AM 33.0122 -79.8158 205° Southwest 285 328 3,100 -950 Descending Jacksonville Center
Wed 10:17:19 AM 32.9442 -79.8553 206° Southwest 280 322 3,000 -100 Descending Jacksonville Center
Wed 10:18:19 AM 32.8700 -79.8950 204° Southwest 280 322 2,900 -100 Descending Jacksonville Center
Wed 10:20:00 AM 32.7814 -80.0049 344° North  Level FlightAware Approximate
Wed 10:27:00 AM 32.8833 -80.0333 348° North  Level FlightAware Approximate
Wed 10:28:00 AM 32.8986 -80.0405 348° North  Level Estimated
Wed 10:29:00 AM 32.8986 -80.0405 348° North  Level Estimated
Wed 10:30:00 AM 32.8986 -80.0405 348° North  Level Estimated
Wed 10:31:00 AM 32.8986 -80.0405 348° North  Level Estimated

Login

Don't have an account? Register now (free) for customized features, flight alerts, and more!